Time;durP1;ratioP1;P1;durP2;ratioP2;P2;SDS_P1;SDS_P2;PMS_P1;PMS_P2;Temp;Humidity;BMP_temperature;BMP_pressure;BME280_temperature;BME280_humidity;BME280_pressure;Samples;Min_cycle;Max_cycle;Signal;HPM_P1;HPM_P2
2023/04/16 00:00:06;;;;;;;1.50;1.10;;;9.00;98.20;;;;;;4961503;28;20548;-76
2023/04/16 00:02:33;;;;;;;1.50;1.10;;;9.00;98.20;;;;;;4953667;28;20505;-76
2023/04/16 00:05:00;;;;;;;1.50;1.20;;;9.00;98.20;;;;;;4966624;28;20467;-76
2023/04/16 00:07:29;;;;;;;1.50;1.10;;;9.00;98.20;;;;;;4958268;28;20489;-76
2023/04/16 00:09:56;;;;;;;1.50;1.20;;;9.00;98.20;;;;;;4959452;28;20957;-75
2023/04/16 00:12:23;;;;;;;1.50;1.20;;;9.00;98.20;;;;;;4957373;28;20478;-76
2023/04/16 00:14:50;;;;;;;1.50;1.20;;;9.00;98.20;;;;;;4961475;28;20549;-77
2023/04/16 00:17:17;;;;;;;1.50;1.20;;;9.00;98.20;;;;;;4958481;28;20492;-77
2023/04/16 00:19:43;;;;;;;1.50;1.20;;;9.00;98.20;;;;;;4961299;28;21141;-77
2023/04/16 00:22:10;;;;;;;1.50;1.30;;;9.00;98.20;;;;;;4958270;28;20653;-77
2023/04/16 00:24:38;;;;;;;1.50;1.10;;;9.00;98.20;;;;;;4960162;28;20464;-76
2023/04/16 00:27:06;;;;;;;3.90;3.63;;;9.00;98.20;;;;;;4953370;28;20490;-75
2023/04/16 00:29:33;;;;;;;1.50;1.20;;;9.00;98.20;;;;;;4964975;28;20466;-77
2023/04/16 00:32:00;;;;;;;1.50;1.20;;;9.00;98.20;;;;;;4956728;28;20580;-77
2023/04/16 00:34:27;;;;;;;1.50;1.10;;;9.00;98.20;;;;;;4967236;28;20953;-77
2023/04/16 00:36:54;;;;;;;1.50;1.20;;;9.00;98.20;;;;;;4951220;28;20493;-76
2023/04/16 00:39:21;;;;;;;1.50;1.20;;;9.00;98.20;;;;;;4966061;28;20457;-76
2023/04/16 00:41:49;;;;;;;1.50;1.10;;;9.00;98.20;;;;;;4949394;28;20573;-76
2023/04/16 00:44:16;;;;;;;1.50;1.20;;;9.00;98.20;;;;;;4961236;28;20901;-76
2023/04/16 00:46:43;;;;;;;1.50;1.20;;;9.00;98.20;;;;;;4951632;28;20506;-76
2023/04/16 00:49:10;;;;;;;1.50;1.20;;;9.10;98.20;;;;;;4961790;28;20850;-76
2023/04/16 00:51:36;;;;;;;1.50;1.20;;;9.00;98.20;;;;;;4951618;28;20494;-76
2023/04/16 00:54:03;;;;;;;1.50;1.10;;;9.00;98.20;;;;;;4955888;28;20747;-76
2023/04/16 00:56:30;;;;;;;1.50;1.30;;;9.00;98.20;;;;;;4948545;28;21145;-76
2023/04/16 00:58:59;;;;;;;1.50;1.10;;;9.10;98.20;;;;;;4964668;28;20466;-76
2023/04/16 01:01:26;;;;;;;1.50;1.10;;;9.10;98.20;;;;;;4949331;28;20489;-76
2023/04/16 01:03:52;;;;;;;1.50;1.10;;;9.10;98.20;;;;;;4962999;28;20500;-76
2023/04/16 01:06:20;;;;;;;1.50;1.23;;;9.10;98.20;;;;;;4951472;28;20494;-77
2023/04/16 01:08:47;;;;;;;1.50;1.20;;;9.10;98.20;;;;;;4964133;28;20494;-76
2023/04/16 01:11:15;;;;;;;1.50;1.10;;;9.10;98.20;;;;;;4958185;28;20490;-77
2023/04/16 01:13:41;;;;;;;1.50;1.10;;;9.10;98.20;;;;;;4964926;28;20517;-77
2023/04/16 01:16:11;;;;;;;1.50;1.20;;;9.10;98.20;;;;;;4956387;28;20833;-77
2023/04/16 01:18:38;;;;;;;1.50;1.10;;;9.10;98.20;;;;;;4972474;28;20481;-80
2023/04/16 01:21:07;;;;;;;1.50;1.10;;;9.10;98.20;;;;;;4955918;28;20708;-78
2023/04/16 01:23:34;;;;;;;1.50;1.10;;;9.00;98.20;;;;;;4990034;28;20565;-77
2023/04/16 01:26:01;;;;;;;1.50;1.10;;;9.00;98.20;;;;;;4978750;28;20485;-78
2023/04/16 01:28:27;;;;;;;1.50;1.20;;;9.00;98.20;;;;;;4990131;28;20528;-82
2023/04/16 01:30:54;;;;;;;1.50;1.20;;;9.10;98.20;;;;;;4986319;28;20968;-78
2023/04/16 01:33:24;;;;;;;1.50;1.20;;;9.00;98.20;;;;;;4990552;28;20966;-77
2023/04/16 01:35:51;;;;;;;1.50;1.10;;;9.10;98.20;;;;;;4987976;28;20461;-78
2023/04/16 01:38:19;;;;;;;1.50;1.10;;;9.10;98.20;;;;;;4995116;28;20554;-79
2023/04/16 01:40:46;;;;;;;1.50;1.10;;;9.10;98.20;;;;;;4993983;28;20461;-79
2023/04/16 01:43:13;;;;;;;1.50;1.20;;;9.10;98.20;;;;;;4966011;28;20485;-78
2023/04/16 01:45:39;;;;;;;1.50;1.17;;;9.10;98.20;;;;;;4996100;28;20491;-78
2023/04/16 01:48:07;;;;;;;1.50;1.20;;;9.00;98.20;;;;;;4981842;28;20820;-84
2023/04/16 01:50:34;;;;;;;1.50;1.10;;;9.00;98.20;;;;;;4998190;28;20535;-82
2023/04/16 01:53:03;;;;;;;1.50;1.10;;;9.00;98.20;;;;;;4971259;28;20540;-77
2023/04/16 01:55:32;;;;;;;1.50;1.20;;;9.10;98.20;;;;;;4992648;28;20461;-78
2023/04/16 01:57:59;;;;;;;1.50;1.17;;;9.10;98.20;;;;;;4974163;28;20517;-77
2023/04/16 02:00:26;;;;;;;1.50;1.10;;;9.10;98.20;;;;;;4994323;28;20544;-78
2023/04/16 02:02:52;;;;;;;1.50;1.20;;;9.00;98.20;;;;;;4980568;28;20484;-78
2023/04/16 02:05:19;;;;;;;1.50;1.13;;;9.10;98.20;;;;;;4992458;28;20468;-80
2023/04/16 02:07:46;;;;;;;1.50;1.20;;;9.10;98.20;;;;;;4976295;28;21066;-82
2023/04/16 02:10:13;;;;;;;1.50;1.20;;;9.10;98.20;;;;;;4994695;28;20457;-78
2023/04/16 02:12:42;;;;;;;1.50;1.10;;;9.10;98.20;;;;;;4983789;28;20491;-78
2023/04/16 02:15:09;;;;;;;1.50;1.20;;;9.10;98.20;;;;;;4988847;28;20468;-78
2023/04/16 02:17:36;;;;;;;1.50;1.20;;;9.10;98.20;;;;;;4975722;28;20508;-78
2023/04/16 02:20:06;;;;;;;1.50;1.20;;;9.10;98.20;;;;;;4993808;28;20543;-79
2023/04/16 02:22:33;;;;;;;1.50;1.27;;;9.10;98.20;;;;;;4977678;28;20577;-77
2023/04/16 02:25:00;;;;;;;1.50;1.10;;;9.10;98.20;;;;;;4992225;28;20976;-77
2023/04/16 02:27:27;;;;;;;1.50;1.20;;;9.00;98.20;;;;;;4977498;28;20564;-78
2023/04/16 02:29:55;;;;;;;1.50;1.10;;;9.10;98.20;;;;;;4994534;28;20960;-81
2023/04/16 02:32:22;;;;;;;1.50;1.10;;;9.00;98.20;;;;;;4980932;28;20480;-78
2023/04/16 02:35:02;;;;;;;1.50;1.10;;;9.00;98.20;;;;;;4989707;28;20462;-77
2023/04/16 02:37:29;;;;;;;1.50;1.13;;;9.00;98.20;;;;;;4982401;28;20645;-77
2023/04/16 02:39:56;;;;;;;1.50;1.10;;;9.00;98.20;;;;;;4997379;28;20465;-78
2023/04/16 02:42:23;;;;;;;1.50;1.20;;;9.10;98.20;;;;;;4983237;28;20485;-78
2023/04/16 02:44:50;;;;;;;1.50;1.20;;;9.00;98.20;;;;;;4992023;28;20471;-77
2023/04/16 02:47:18;;;;;;;1.50;1.10;;;9.00;98.20;;;;;;4978732;28;20935;-79
2023/04/16 02:49:45;;;;;;;1.50;1.10;;;9.00;98.20;;;;;;4998299;28;20452;-81
2023/04/16 02:52:12;;;;;;;1.50;1.20;;;9.00;98.20;;;;;;4971729;28;20478;-79
2023/04/16 02:54:39;;;;;;;1.50;1.10;;;9.00;98.20;;;;;;4983440;28;20457;-77
2023/04/16 02:57:06;;;;;;;1.50;1.10;;;9.00;98.20;;;;;;4962168;28;20513;-78
2023/04/16 02:59:33;;;;;;;1.50;1.10;;;9.00;98.20;;;;;;4976546;28;20473;-80
2023/04/16 03:02:00;;;;;;;1.50;1.20;;;9.00;98.20;;;;;;4964615;28;20517;-79
2023/04/16 03:04:29;;;;;;;1.50;1.10;;;9.00;98.20;;;;;;4980770;28;20489;-80
2023/04/16 03:06:56;;;;;;;1.50;1.20;;;9.00;98.20;;;;;;4962372;28;20511;-79
2023/04/16 03:09:23;;;;;;;1.50;1.20;;;9.00;98.20;;;;;;4970490;28;20469;-79
2023/04/16 03:11:49;;;;;;;1.50;1.10;;;9.00;98.20;;;;;;5007545;23;20535;-76
2023/04/16 03:14:16;;;;;;;1.50;1.20;;;9.00;98.20;;;;;;5002487;28;20467;-76
2023/04/16 03:16:43;;;;;;;1.50;1.20;;;9.00;98.20;;;;;;5001151;28;21008;-76
2023/04/16 03:19:09;;;;;;;1.50;1.20;;;9.00;98.20;;;;;;5032685;28;20486;-75
2023/04/16 03:21:38;;;;;;;1.50;1.10;;;9.00;98.20;;;;;;5007237;28;20521;-75
2023/04/16 03:24:04;;;;;;;1.50;1.10;;;9.00;98.20;;;;;;5011383;28;21032;-76
2023/04/16 03:26:31;;;;;;;1.50;1.20;;;9.00;98.20;;;;;;5012140;28;20495;-75
2023/04/16 03:28:58;;;;;;;1.50;1.10;;;9.00;98.20;;;;;;5010790;28;20468;-75
2023/04/16 03:31:24;;;;;;;1.50;1.10;;;9.00;98.20;;;;;;5008131;28;21011;-75
2023/04/16 03:33:51;;;;;;;1.50;1.20;;;9.00;98.20;;;;;;5008944;28;20470;-76
2023/04/16 03:36:18;;;;;;;1.50;1.27;;;9.00;98.20;;;;;;5006984;28;20510;-76
2023/04/16 03:38:46;;;;;;;1.50;1.10;;;9.00;98.20;;;;;;5015963;28;20483;-76
2023/04/16 03:41:13;;;;;;;1.50;1.20;;;9.00;98.20;;;;;;5004644;28;20499;-75
2023/04/16 03:43:40;;;;;;;1.50;1.20;;;9.00;98.20;;;;;;4997676;28;20504;-76
2023/04/16 03:46:06;;;;;;;1.50;1.20;;;9.00;98.20;;;;;;4990930;28;20480;-75
2023/04/16 03:48:33;;;;;;;1.50;1.20;;;9.00;98.20;;;;;;5014728;28;20460;-76
2023/04/16 03:51:00;;;;;;;1.50;1.20;;;9.00;98.20;;;;;;5004305;28;20867;-75
2023/04/16 03:53:27;;;;;;;1.60;1.50;;;9.00;98.20;;;;;;5016312;28;20459;-75
2023/04/16 03:55:55;;;;;;;1.50;1.20;;;9.00;98.20;;;;;;5007208;28;20463;-76
2023/04/16 03:58:22;;;;;;;1.50;1.20;;;9.00;98.20;;;;;;5016363;28;20467;-76
2023/04/16 04:00:48;;;;;;;1.50;1.10;;;9.10;98.20;;;;;;5008131;28;20480;-76
2023/04/16 04:03:17;;;;;;;1.50;1.30;;;9.10;98.20;;;;;;5008481;28;20511;-76
2023/04/16 04:05:44;;;;;;;2.10;1.90;;;9.10;98.20;;;;;;5021944;28;20764;-75
2023/04/16 04:08:11;;;;;;;1.50;1.10;;;9.10;98.20;;;;;;5002330;28;20868;-75
2023/04/16 04:10:38;;;;;;;1.50;1.10;;;9.10;98.20;;;;;;5016149;28;20865;-76
2023/04/16 04:13:07;;;;;;;1.50;1.20;;;9.10;98.20;;;;;;4998609;28;20479;-76
2023/04/16 04:15:34;;;;;;;1.50;1.23;;;9.10;98.20;;;;;;5016557;28;20466;-76
2023/04/16 04:18:00;;;;;;;1.50;1.20;;;9.10;98.20;;;;;;4999136;28;20575;-76
2023/04/16 04:20:27;;;;;;;1.50;1.10;;;9.10;98.20;;;;;;5017860;28;20476;-76
2023/04/16 04:22:54;;;;;;;1.50;1.20;;;9.10;98.20;;;;;;5003318;28;20879;-75
2023/04/16 04:25:21;;;;;;;1.50;1.30;;;9.10;98.20;;;;;;5016850;28;20460;-76
2023/04/16 04:27:48;;;;;;;1.50;1.20;;;9.10;98.20;;;;;;5007209;28;20495;-75
2023/04/16 04:30:16;;;;;;;1.50;1.10;;;9.10;98.20;;;;;;5017067;28;20913;-76
2023/04/16 04:32:42;;;;;;;1.50;1.13;;;9.10;98.20;;;;;;5009467;28;20639;-76
2023/04/16 04:35:09;;;;;;;1.50;1.10;;;9.10;98.20;;;;;;5009736;28;20494;-75
2023/04/16 04:37:36;;;;;;;1.50;1.20;;;9.10;98.20;;;;;;4991587;28;20496;-76
2023/04/16 04:40:03;;;;;;;1.50;1.20;;;9.10;98.20;;;;;;5018991;28;20464;-76
2023/04/16 04:42:30;;;;;;;1.50;1.20;;;9.10;98.20;;;;;;5005404;28;20491;-76
2023/04/16 04:44:57;;;;;;;1.50;1.13;;;9.00;98.20;;;;;;5020332;28;20577;-76
2023/04/16 04:47:25;;;;;;;1.50;1.20;;;9.10;98.20;;;;;;5014081;28;20570;-76
2023/04/16 04:49:53;;;;;;;1.50;1.20;;;9.10;98.20;;;;;;5022642;28;20452;-76
2023/04/16 04:52:20;;;;;;;1.50;1.33;;;9.10;98.20;;;;;;5010787;28;20923;-75
2023/04/16 04:54:47;;;;;;;1.60;1.37;;;9.10;98.20;;;;;;5019357;28;20494;-77
2023/04/16 04:57:13;;;;;;;1.50;1.10;;;9.10;98.20;;;;;;5008493;28;20762;-77
2023/04/16 04:59:40;;;;;;;1.73;1.63;;;9.10;98.20;;;;;;5016971;28;20471;-76
2023/04/16 05:02:07;;;;;;;1.50;1.10;;;9.10;98.20;;;;;;5003897;28;20492;-74
2023/04/16 05:04:35;;;;;;;1.50;1.10;;;9.10;98.20;;;;;;5011441;28;20476;-76
2023/04/16 05:07:02;;;;;;;1.50;1.20;;;9.10;98.20;;;;;;5009905;28;20492;-77
2023/04/16 05:09:29;;;;;;;1.50;1.20;;;9.10;98.20;;;;;;5017695;28;20522;-77
2023/04/16 05:11:56;;;;;;;1.50;1.20;;;9.10;98.20;;;;;;5011746;28;20494;-76
2023/04/16 05:14:23;;;;;;;1.50;1.10;;;9.10;98.20;;;;;;5016434;28;20491;-77
2023/04/16 05:16:50;;;;;;;1.50;1.10;;;9.10;98.20;;;;;;4999761;28;20507;-76
2023/04/16 05:19:17;;;;;;;1.50;1.10;;;9.10;98.20;;;;;;5015783;28;20467;-75
2023/04/16 05:21:45;;;;;;;1.50;1.10;;;9.10;98.20;;;;;;5010472;28;20771;-76
2023/04/16 05:24:12;;;;;;;1.50;1.10;;;9.10;98.20;;;;;;5015606;28;20487;-76
2023/04/16 05:26:38;;;;;;;1.50;1.10;;;9.10;98.20;;;;;;5005513;28;21060;-76
2023/04/16 05:29:05;;;;;;;1.50;1.13;;;9.20;98.20;;;;;;5023137;28;20455;-76
2023/04/16 05:31:32;;;;;;;1.50;1.10;;;9.20;98.20;;;;;;5008207;28;20484;-76
2023/04/16 05:33:59;;;;;;;1.50;1.20;;;9.20;98.20;;;;;;5004706;28;20468;-75
2023/04/16 05:36:25;;;;;;;1.50;1.20;;;9.20;98.20;;;;;;5004431;28;20490;-76
2023/04/16 05:38:53;;;;;;;1.50;1.10;;;9.20;98.20;;;;;;5009989;28;20459;-77
2023/04/16 05:41:20;;;;;;;1.50;1.10;;;9.20;98.20;;;;;;5012397;28;20862;-76
2023/04/16 05:43:47;;;;;;;1.50;1.10;;;9.20;98.20;;;;;;5015136;28;21043;-76
2023/04/16 05:46:13;;;;;;;1.70;1.60;;;9.20;98.20;;;;;;5003285;28;20499;-76
2023/04/16 05:48:40;;;;;;;1.50;1.13;;;9.20;98.20;;;;;;5015056;28;20472;-77
2023/04/16 05:51:07;;;;;;;1.50;1.10;;;9.20;98.20;;;;;;5010582;28;20488;-77
2023/04/16 05:53:34;;;;;;;1.50;1.10;;;9.20;98.20;;;;;;5013460;28;20840;-77
2023/04/16 05:56:02;;;;;;;1.50;1.20;;;9.30;98.20;;;;;;5000538;28;20969;-77
2023/04/16 05:58:28;;;;;;;1.50;1.20;;;9.30;98.20;;;;;;5018643;28;20466;-77
2023/04/16 06:00:55;;;;;;;1.50;1.20;;;9.30;98.20;;;;;;5006711;28;20479;-76
2023/04/16 06:03:22;;;;;;;1.50;1.20;;;9.30;98.20;;;;;;5008038;28;20456;-76
2023/04/16 06:05:49;;;;;;;1.50;1.10;;;9.30;98.20;;;;;;5016181;28;20464;-75
2023/04/16 06:08:15;;;;;;;1.50;1.20;;;9.30;98.20;;;;;;5020893;28;20463;-77
2023/04/16 06:10:42;;;;;;;1.53;1.30;;;9.30;98.20;;;;;;5016696;28;20492;-78
2023/04/16 06:13:10;;;;;;;1.50;1.27;;;9.30;98.20;;;;;;4996009;28;20499;-78
2023/04/16 06:15:37;;;;;;;1.50;1.20;;;9.40;98.20;;;;;;5025094;28;20505;-74
2023/04/16 06:18:04;;;;;;;1.50;1.10;;;9.40;98.20;;;;;;5007433;28;20514;-77
2023/04/16 06:20:31;;;;;;;1.60;1.30;;;9.40;98.20;;;;;;5014162;28;20484;-78
2023/04/16 06:22:58;;;;;;;1.50;1.10;;;9.40;98.20;;;;;;5015095;28;20494;-78
2023/04/16 06:25:24;;;;;;;1.50;1.10;;;9.40;98.20;;;;;;5023867;28;20488;-78
2023/04/16 06:27:51;;;;;;;1.50;1.10;;;9.40;98.20;;;;;;5013874;28;21030;-81
2023/04/16 06:30:20;;;;;;;1.50;1.10;;;9.40;98.20;;;;;;5031900;28;20479;-80
2023/04/16 06:32:46;;;;;;;1.50;1.17;;;9.40;98.20;;;;;;5014957;28;20549;-79
2023/04/16 06:35:13;;;;;;;1.50;1.10;;;9.30;98.20;;;;;;5021955;28;20463;-81
2023/04/16 06:37:40;;;;;;;1.50;1.10;;;9.30;98.20;;;;;;5013418;28;20488;-81
2023/04/16 06:40:08;;;;;;;1.50;1.20;;;9.30;98.20;;;;;;5027321;28;20952;-81
2023/04/16 06:42:35;;;;;;;1.53;1.20;;;9.40;98.20;;;;;;5000642;28;20489;-80
2023/04/16 06:45:01;;;;;;;1.50;1.20;;;9.40;98.20;;;;;;5022668;28;20490;-82
2023/04/16 06:47:30;;;;;;;1.50;1.10;;;9.40;98.20;;;;;;5007678;28;20524;-78
2023/04/16 06:49:56;;;;;;;1.50;1.10;;;9.40;98.20;;;;;;5020375;28;20482;-81
2023/04/16 06:52:23;;;;;;;1.50;1.10;;;9.40;98.20;;;;;;5006916;28;21020;-80
2023/04/16 06:54:50;;;;;;;1.50;1.13;;;9.40;98.20;;;;;;5027696;28;20463;-81
2023/04/16 06:57:16;;;;;;;1.53;1.20;;;9.40;98.20;;;;;;5017282;28;20547;-79
2023/04/16 06:59:43;;;;;;;1.50;1.20;;;9.40;98.20;;;;;;5027066;28;20478;-80
2023/04/16 07:02:10;;;;;;;1.50;1.20;;;9.40;98.20;;;;;;5016175;28;20495;-78
2023/04/16 07:04:38;;;;;;;1.50;1.10;;;9.40;98.20;;;;;;5029429;28;20582;-79
2023/04/16 07:07:05;;;;;;;1.50;1.20;;;9.40;98.20;;;;;;5006503;28;20487;-79
2023/04/16 07:09:32;;;;;;;1.50;1.10;;;9.50;98.20;;;;;;5019837;28;20460;-79
2023/04/16 07:11:59;;;;;;;1.50;1.10;;;9.50;98.20;;;;;;5018635;28;20500;-80
2023/04/16 07:14:25;;;;;;;1.50;1.20;;;9.50;98.20;;;;;;5028819;28;20455;-79
2023/04/16 07:16:52;;;;;;;1.50;1.10;;;9.50;98.20;;;;;;5010584;28;20480;-80
2023/04/16 07:19:19;;;;;;;1.50;1.10;;;9.60;98.20;;;;;;5029426;28;20841;-79
2023/04/16 07:21:48;;;;;;;1.50;1.10;;;9.60;98.20;;;;;;5018666;28;20491;-81
2023/04/16 07:24:14;;;;;;;1.50;1.10;;;9.60;98.20;;;;;;5027875;28;20527;-81
2023/04/16 07:26:41;;;;;;;1.50;1.10;;;9.60;98.20;;;;;;5006928;28;20491;-79
2023/04/16 07:29:08;;;;;;;1.50;1.10;;;9.60;98.20;;;;;;5015657;28;20474;-80
2023/04/16 07:31:35;;;;;;;1.50;1.10;;;9.60;98.20;;;;;;5013299;28;20878;-81
2023/04/16 07:34:01;;;;;;;1.50;1.10;;;9.60;98.20;;;;;;5026274;28;20451;-78
2023/04/16 07:36:28;;;;;;;1.50;1.10;;;9.70;98.20;;;;;;5014804;28;20490;-82
2023/04/16 07:38:56;;;;;;;1.50;1.20;;;9.70;98.20;;;;;;5026258;28;20470;-78
2023/04/16 07:41:23;;;;;;;1.50;1.10;;;9.70;98.20;;;;;;5008198;28;20495;-79
2023/04/16 07:43:50;;;;;;;1.50;1.10;;;9.80;98.20;;;;;;5012056;28;20459;-83
2023/04/16 07:46:16;;;;;;;1.50;1.20;;;9.80;98.20;;;;;;5011809;28;20484;-79
2023/04/16 07:48:43;;;;;;;1.50;1.00;;;9.80;98.20;;;;;;5024700;28;20822;-80
2023/04/16 07:51:10;;;;;;;1.50;1.10;;;9.80;98.20;;;;;;5012740;28;20506;-79
2023/04/16 07:53:37;;;;;;;1.53;1.20;;;9.90;98.20;;;;;;5026443;28;20459;-79
2023/04/16 07:56:05;;;;;;;1.50;1.10;;;9.90;98.20;;;;;;5008922;28;20540;-78
2023/04/16 07:58:32;;;;;;;1.50;1.07;;;9.90;98.20;;;;;;5008084;28;20456;-78
2023/04/16 08:01:02;;;;;;;1.53;1.20;;;10.00;98.20;;;;;;5016295;28;20492;-78
2023/04/16 08:03:29;;;;;;;5.93;2.43;;;10.10;98.20;;;;;;5022824;28;20454;-78
2023/04/16 08:05:56;;;;;;;1.50;1.10;;;10.30;98.20;;;;;;5012915;28;20490;-79
2023/04/16 08:08:22;;;;;;;1.50;1.17;;;10.40;98.20;;;;;;5027380;28;20849;-79
2023/04/16 08:10:54;;;;;;;1.60;1.27;;;10.60;98.20;;;;;;5015103;28;20819;-80
2023/04/16 08:13:22;;;;;;;1.50;1.10;;;10.70;98.20;;;;;;5006735;28;20502;-79
2023/04/16 08:15:49;;;;;;;1.50;1.00;;;10.80;98.20;;;;;;5012601;28;20459;-78
2023/04/16 08:18:16;;;;;;;1.50;1.10;;;10.90;98.20;;;;;;5001722;28;20488;-79
2023/04/16 08:20:43;;;;;;;1.50;1.00;;;10.90;98.20;;;;;;5028127;28;20767;-78
2023/04/16 08:23:10;;;;;;;1.50;1.10;;;11.00;98.20;;;;;;5009727;28;20494;-78
2023/04/16 08:25:37;;;;;;;1.60;1.30;;;11.00;98.20;;;;;;5029756;28;20486;-81
2023/04/16 08:28:04;;;;;;;1.50;1.10;;;11.10;98.20;;;;;;5014050;28;21027;-81
2023/04/16 08:30:32;;;;;;;1.50;1.10;;;11.20;98.20;;;;;;5021220;28;20513;-78
2023/04/16 08:32:58;;;;;;;1.53;1.10;;;11.30;98.20;;;;;;4989898;28;20499;-79
2023/04/16 08:35:25;;;;;;;1.50;1.00;;;11.30;98.20;;;;;;5020455;28;20462;-78
2023/04/16 08:37:52;;;;;;;1.57;1.00;;;11.40;98.20;;;;;;4991391;28;20485;-77
2023/04/16 08:40:19;;;;;;;1.57;1.00;;;11.50;98.20;;;;;;5016519;28;20913;-77
2023/04/16 08:42:52;;;;;;;2.10;1.77;;;11.60;98.20;;;;;;5014961;28;20521;-77
2023/04/16 08:45:19;;;;;;;1.50;1.00;;;11.60;98.20;;;;;;5020634;28;20483;-75
2023/04/16 08:47:48;;;;;;;1.60;1.10;;;11.70;98.20;;;;;;4999487;28;20572;-77
2023/04/16 08:50:17;;;;;;;1.60;1.40;;;11.80;98.20;;;;;;5019990;28;20502;-77
2023/04/16 08:52:50;;;;;;;2.60;2.40;;;12.00;98.20;;;;;;5007426;28;20906;-76
2023/04/16 08:55:19;;;;;;;1.57;1.20;;;12.00;98.20;;;;;;5019291;28;20802;-77
2023/04/16 08:57:48;;;;;;;1.50;1.00;;;12.10;98.20;;;;;;4987845;28;20483;-77
2023/04/16 09:00:16;;;;;;;1.50;1.10;;;12.20;98.20;;;;;;5018272;28;20475;-77
2023/04/16 09:02:43;;;;;;;1.57;1.10;;;12.20;98.20;;;;;;5008596;28;20881;-77
2023/04/16 09:05:16;;;;;;;1.50;1.07;;;12.20;98.20;;;;;;5021270;28;20484;-77
2023/04/16 09:07:44;;;;;;;1.50;1.10;;;12.30;98.20;;;;;;4985312;28;20487;-77
2023/04/16 09:10:12;;;;;;;1.50;1.10;;;12.20;98.20;;;;;;5014478;28;20459;-78
2023/04/16 09:12:41;;;;;;;1.50;1.00;;;12.30;98.20;;;;;;4990878;28;20484;-77
2023/04/16 09:15:13;;;;;;;1.60;1.43;;;12.40;98.20;;;;;;5046954;23;20743;-75
2023/04/16 09:17:40;;;;;;;1.50;1.10;;;12.60;98.20;;;;;;4988661;28;21368;-75
2023/04/16 09:20:09;;;;;;;1.50;1.00;;;12.70;98.20;;;;;;4989519;28;20695;-77
2023/04/16 09:22:38;;;;;;;1.50;1.00;;;12.80;98.20;;;;;;4992111;28;20494;-74
2023/04/16 09:25:06;;;;;;;1.60;1.30;;;12.90;98.20;;;;;;4995577;28;20492;-75
2023/04/16 09:27:33;;;;;;;1.50;1.00;;;13.00;98.20;;;;;;4995719;28;20495;-74
2023/04/16 09:30:00;;;;;;;1.50;1.00;;;13.10;98.20;;;;;;4996945;28;20468;-76
2023/04/16 09:32:28;;;;;;;1.50;1.00;;;13.10;98.20;;;;;;5001538;28;21056;-74
2023/04/16 09:34:57;;;;;;;1.50;1.00;;;13.10;98.20;;;;;;4990102;28;20576;-75
2023/04/16 09:37:36;;;;;;;1.50;1.00;;;13.10;98.20;;;;;;4986569;28;20491;-75
2023/04/16 09:40:06;;;;;;;1.50;1.00;;;13.10;98.20;;;;;;4982865;28;20464;-76
2023/04/16 09:42:35;;;;;;;1.50;1.00;;;13.10;98.20;;;;;;5004827;28;20574;-75
2023/04/16 09:45:03;;;;;;;1.50;1.00;;;13.20;98.20;;;;;;5010809;28;20499;-80
2023/04/16 09:47:39;;;;;;;2.17;1.97;;;13.10;98.20;;;;;;5012974;28;21227;-75
2023/04/16 09:50:07;;;;;;;1.50;1.00;;;13.10;98.20;;;;;;5016597;28;20463;-77
2023/04/16 09:52:37;;;;;;;1.50;0.90;;;13.10;98.20;;;;;;5003951;28;20487;-76
2023/04/16 09:55:06;;;;;;;1.57;1.17;;;13.10;98.20;;;;;;5006165;28;20476;-77
2023/04/16 09:57:33;;;;;;;2.83;1.77;;;13.20;98.20;;;;;;5015713;28;20554;-77
2023/04/16 10:00:04;;;;;;;1.50;1.00;;;13.20;98.20;;;;;;5023393;28;20470;-77
2023/04/16 10:02:33;;;;;;;1.60;1.10;;;13.20;98.20;;;;;;5022748;28;21087;-77
2023/04/16 10:05:01;;;;;;;1.50;1.10;;;13.20;98.20;;;;;;5013309;28;20495;-76
2023/04/16 10:07:29;;;;;;;1.50;1.10;;;13.30;98.20;;;;;;5017401;28;20482;-77
2023/04/16 10:09:57;;;;;;;1.50;1.20;;;13.40;98.20;;;;;;5017241;28;20455;-77
2023/04/16 10:12:27;;;;;;;1.50;1.10;;;13.50;98.20;;;;;;5006527;28;20482;-75
2023/04/16 10:14:54;;;;;;;1.50;1.10;;;13.50;98.20;;;;;;5017521;28;20536;-77
2023/04/16 10:17:22;;;;;;;1.50;1.10;;;13.60;98.20;;;;;;5020651;28;20478;-76
2023/04/16 10:19:50;;;;;;;1.50;1.00;;;13.60;98.20;;;;;;5019684;28;20466;-76
2023/04/16 10:22:17;;;;;;;1.50;1.00;;;13.60;98.20;;;;;;5019249;28;20520;-75
2023/04/16 10:24:48;;;;;;;1.50;1.00;;;13.60;98.20;;;;;;5024771;28;20491;-75
2023/04/16 10:27:15;;;;;;;1.50;1.00;;;13.60;98.20;;;;;;5008994;28;20486;-75
2023/04/16 10:29:44;;;;;;;1.50;1.00;;;13.50;98.20;;;;;;5015705;28;20460;-75
2023/04/16 10:32:12;;;;;;;1.50;1.20;;;13.50;98.20;;;;;;5011510;28;20478;-73
2023/04/16 10:34:39;;;;;;;1.50;1.00;;;13.50;98.20;;;;;;5016721;28;20484;-73
2023/04/16 10:37:06;;;;;;;1.50;1.00;;;13.50;98.20;;;;;;5015196;28;20481;-75
2023/04/16 10:39:37;;;;;;;1.60;1.00;;;13.50;98.20;;;;;;5022844;28;21074;-73
2023/04/16 10:42:08;;;;;;;1.60;1.50;;;13.50;98.20;;;;;;5010739;28;20472;-76
2023/04/16 10:44:36;;;;;;;1.50;1.10;;;13.60;98.20;;;;;;5018072;28;20505;-75
2023/04/16 10:47:11;;;;;;;1.50;1.00;;;13.70;98.20;;;;;;5020128;28;21082;-75
2023/04/16 10:49:38;;;;;;;1.50;1.10;;;13.70;98.20;;;;;;5027098;28;20915;-74
2023/04/16 10:52:11;;;;;;;1.50;1.00;;;13.90;98.20;;;;;;5020401;28;20544;-74
2023/04/16 10:54:38;;;;;;;1.50;1.00;;;14.00;98.20;;;;;;5022690;28;20902;-73
2023/04/16 10:57:07;;;;;;;1.50;1.00;;;14.10;98.20;;;;;;5016121;28;20490;-73
2023/04/16 10:59:35;;;;;;;1.50;1.10;;;14.20;98.20;;;;;;5022885;28;20487;-74
2023/04/16 11:02:09;;;;;;;1.50;0.90;;;14.40;98.20;;;;;;5020614;28;20524;-74
2023/04/16 11:04:36;;;;;;;1.50;1.00;;;14.60;98.20;;;;;;5024923;28;20486;-74
2023/04/16 11:07:06;;;;;;;4.37;1.83;;;14.70;98.20;;;;;;5013642;28;20484;-74
2023/04/16 11:09:50;;;;;;;1.50;0.97;;;14.90;98.20;;;;;;5022769;28;20459;-76
2023/04/16 11:12:18;;;;;;;1.50;1.00;;;14.90;98.20;;;;;;5016920;28;20478;-76
2023/04/16 11:14:48;;;;;;;1.50;1.00;;;15.00;98.20;;;;;;5013002;28;20588;-76
2023/04/16 11:17:16;;;;;;;1.50;1.00;;;15.10;98.20;;;;;;5013053;28;20702;-76
2023/04/16 11:19:44;;;;;;;1.50;1.00;;;15.10;98.20;;;;;;5015304;28;21037;-75
2023/04/16 11:22:20;;;;;;;1.50;0.90;;;15.00;98.20;;;;;;5018401;28;20494;-74
2023/04/16 11:24:53;;;;;;;1.50;1.10;;;14.90;98.20;;;;;;5027046;28;20483;-74
2023/04/16 11:27:20;;;;;;;2.57;1.70;;;14.80;98.20;;;;;;5016970;28;20498;-74
2023/04/16 11:29:56;;;;;;;1.50;1.00;;;14.60;98.20;;;;;;5017978;28;20460;-74
2023/04/16 11:32:24;;;;;;;1.50;1.00;;;14.50;98.20;;;;;;5021704;28;20981;-74
2023/04/16 11:34:56;;;;;;;1.50;1.10;;;14.40;98.20;;;;;;5026638;28;20483;-74
2023/04/16 11:37:34;;;;;;;1.50;0.90;;;14.50;98.20;;;;;;5018183;28;20494;-75
2023/04/16 11:40:03;;;;;;;1.50;1.10;;;14.60;98.20;;;;;;5026171;28;20464;-77
2023/04/16 11:42:30;;;;;;;1.50;0.90;;;14.70;98.20;;;;;;5016459;28;20986;-76
2023/04/16 11:44:59;;;;;;;3.23;2.73;;;14.80;98.20;;;;;;5015274;28;20479;-75
2023/04/16 11:47:27;;;;;;;1.50;1.00;;;14.80;98.20;;;;;;5016904;28;20599;-75
2023/04/16 11:49:54;;;;;;;1.50;1.00;;;14.70;98.20;;;;;;5011753;28;20468;-73
2023/04/16 11:52:28;;;;;;;3.10;2.90;;;14.80;98.20;;;;;;5021261;28;21000;-76
2023/04/16 11:54:55;;;;;;;1.50;1.00;;;14.80;98.20;;;;;;5019062;28;20829;-76
2023/04/16 11:57:26;;;;;;;1.50;1.00;;;15.00;98.20;;;;;;5017158;28;20482;-76
2023/04/16 11:59:53;;;;;;;1.50;1.00;;;15.10;98.20;;;;;;5023900;28;20499;-76
2023/04/16 12:02:37;;;;;;;1.50;0.90;;;15.40;98.20;;;;;;5016857;28;20888;-74
2023/04/16 12:05:04;;;;;;;1.50;0.97;;;15.40;98.20;;;;;;5017042;28;20491;-74
2023/04/16 12:07:31;;;;;;;3.63;3.33;;;15.30;98.20;;;;;;5018907;28;20477;-76
2023/04/16 12:10:08;;;;;;;1.50;0.90;;;15.20;98.20;;;;;;5014161;28;20467;-74
2023/04/16 12:12:35;;;;;;;2.37;2.17;;;15.20;98.20;;;;;;5018054;28;20572;-76
2023/04/16 12:15:03;;;;;;;1.50;1.00;;;15.20;98.20;;;;;;5022623;28;20488;-73
2023/04/16 12:17:30;;;;;;;1.50;1.00;;;15.30;98.20;;;;;;5015523;28;20608;-75
2023/04/16 12:20:00;;;;;;;1.50;1.00;;;15.50;98.20;;;;;;5020716;28;20829;-75
2023/04/16 12:22:31;;;;;;;1.50;1.00;;;15.70;98.20;;;;;;5012311;28;20507;-74
2023/04/16 12:25:03;;;;;;;1.50;1.00;;;16.00;98.20;;;;;;5015774;28;20503;-75
2023/04/16 12:27:45;;;;;;;1.50;0.90;;;16.30;98.20;;;;;;5023732;28;20482;-75
2023/04/16 12:30:12;;;;;;;1.50;0.90;;;16.70;98.20;;;;;;5021752;28;20987;-75
2023/04/16 12:32:42;;;;;;;1.50;1.00;;;17.00;98.20;;;;;;5024611;28;20847;-74
2023/04/16 12:35:11;;;;;;;1.93;1.73;;;16.90;96.20;;;;;;5020620;28;20896;-74
2023/04/16 12:37:38;;;;;;;1.50;0.90;;;16.90;97.90;;;;;;5020591;28;20545;-75
2023/04/16 12:40:06;;;;;;;1.50;1.00;;;16.70;96.90;;;;;;5020743;28;20832;-75
2023/04/16 12:42:37;;;;;;;1.50;0.90;;;16.50;97.30;;;;;;5019179;28;20609;-75
2023/04/16 12:45:05;;;;;;;1.50;0.90;;;16.50;98.10;;;;;;5023508;28;20989;-75
2023/04/16 12:47:47;;;;;;;1.50;0.93;;;16.40;97.70;;;;;;5021625;28;20784;-75
2023/04/16 12:50:15;;;;;;;1.50;0.90;;;16.30;97.50;;;;;;5017495;28;20857;-75
2023/04/16 12:52:44;;;;;;;1.50;1.17;;;16.20;98.20;;;;;;5012626;28;20487;-75
2023/04/16 12:55:12;;;;;;;1.50;0.90;;;16.20;97.80;;;;;;5019642;28;20483;-75